Time;durP1;ratioP1;P1;durP2;ratioP2;P2;SDS_P1;SDS_P2;PMS_P1;PMS_P2;Temp;Humidity;BMP_temperature;BMP_pressure;BME280_temperature;BME280_humidity;BME280_pressure;Samples;Min_cycle;Max_cycle;Signal;HPM_P1;HPM_P2
2022/09/02 00:00:45;;;;;;;1.87;1.17;;;21.10;45.00;;;;;;4992626;28;20977;-73
2022/09/02 00:03:12;;;;;;;5.60;0.93;;;21.00;45.00;;;;;;4959270;28;20589;-73
2022/09/02 00:05:38;;;;;;;1.30;0.60;;;21.00;45.30;;;;;;4975517;28;21210;-74
2022/09/02 00:08:05;;;;;;;2.03;0.90;;;21.00;45.00;;;;;;4992699;28;20626;-73
2022/09/02 00:10:34;;;;;;;1.50;0.87;;;21.00;45.10;;;;;;4992513;28;20195;-73
2022/09/02 00:13:00;;;;;;;2.13;0.77;;;20.90;45.60;;;;;;4992696;28;20558;-73
2022/09/02 00:15:26;;;;;;;2.13;0.80;;;20.90;45.40;;;;;;4992690;28;21158;-74
2022/09/02 00:17:53;;;;;;;1.90;0.70;;;20.90;45.70;;;;;;4992689;28;20571;-73
2022/09/02 00:20:19;;;;;;;1.70;0.60;;;20.90;46.20;;;;;;4992444;28;20606;-73
2022/09/02 00:22:45;;;;;;;1.50;0.70;;;20.90;45.60;;;;;;4992560;28;20562;-73
2022/09/02 00:25:11;;;;;;;1.50;0.63;;;20.90;45.80;;;;;;4975118;28;20589;-73
2022/09/02 00:27:37;;;;;;;1.87;0.80;;;20.90;45.60;;;;;;4992464;28;20640;-73
2022/09/02 00:30:04;;;;;;;3.30;0.70;;;20.90;45.70;;;;;;4992248;28;20591;-73
2022/09/02 00:32:30;;;;;;;2.37;0.80;;;20.90;45.70;;;;;;4975076;28;20178;-73
2022/09/02 00:34:57;;;;;;;1.43;0.70;;;20.90;45.70;;;;;;4974922;28;20573;-73
2022/09/02 00:37:25;;;;;;;1.53;0.60;;;20.90;45.70;;;;;;4975170;28;21035;-73
2022/09/02 00:39:53;;;;;;;4.87;0.90;;;20.80;45.80;;;;;;4990792;28;20668;-73
2022/09/02 00:42:19;;;;;;;2.70;0.60;;;20.80;45.80;;;;;;4974724;28;20570;-73
2022/09/02 00:44:46;;;;;;;1.43;0.60;;;20.80;46.00;;;;;;4991096;28;20578;-74
2022/09/02 00:47:13;;;;;;;1.67;0.70;;;20.70;45.90;;;;;;4992327;28;21019;-74
2022/09/02 00:49:44;;;;;;;3.50;0.70;;;20.70;46.30;;;;;;4991999;28;20594;-74
2022/09/02 00:52:34;;;;;;;1.90;0.73;;;20.70;46.40;;;;;;4974646;28;20578;-74
2022/09/02 00:55:17;;;;;;;3.33;0.70;;;20.70;46.30;;;;;;4992347;28;20563;-74
2022/09/02 00:57:47;;;;;;;2.87;0.67;;;20.70;46.50;;;;;;4974755;28;20951;-74
2022/09/02 01:00:17;;;;;;;2.33;0.70;;;20.60;46.30;;;;;;4991879;28;20602;-74
2022/09/02 01:02:48;;;;;;;2.33;0.70;;;20.60;46.50;;;;;;4990832;28;20577;-74
2022/09/02 01:05:16;;;;;;;3.80;0.70;;;20.60;46.60;;;;;;4992152;28;20966;-74
2022/09/02 01:07:43;;;;;;;2.60;0.67;;;20.60;46.60;;;;;;4974628;28;20641;-74
2022/09/02 01:10:16;;;;;;;2.50;0.90;;;20.50;46.50;;;;;;4991901;28;20602;-74
2022/09/02 01:12:42;;;;;;;2.20;0.70;;;20.50;46.70;;;;;;4991931;28;20825;-74
2022/09/02 01:15:09;;;;;;;2.93;0.63;;;20.50;46.80;;;;;;4992075;28;20598;-74
2022/09/02 01:17:39;;;;;;;1.50;0.73;;;20.40;46.50;;;;;;4990833;28;20601;-74
2022/09/02 01:20:10;;;;;;;2.00;0.70;;;20.50;46.80;;;;;;4991603;28;20990;-74
2022/09/02 01:22:38;;;;;;;1.60;0.90;;;20.40;46.70;;;;;;4974548;28;20617;-74
2022/09/02 01:25:12;;;;;;;2.70;0.80;;;20.40;46.70;;;;;;4990803;28;20587;-74
2022/09/02 01:27:38;;;;;;;2.17;0.70;;;20.40;46.90;;;;;;4990812;28;20629;-74
2022/09/02 01:30:06;;;;;;;1.60;0.70;;;20.30;46.80;;;;;;4990472;28;20645;-74
2022/09/02 01:32:31;;;;;;;1.50;0.60;;;20.30;46.90;;;;;;4974294;28;20681;-74
2022/09/02 01:34:58;;;;;;;1.70;0.60;;;20.30;46.90;;;;;;4990652;28;20665;-74
2022/09/02 01:37:26;;;;;;;3.30;0.83;;;20.30;46.90;;;;;;4990571;28;20605;-74
2022/09/02 01:39:52;;;;;;;1.60;0.60;;;20.30;47.00;;;;;;4991448;28;21167;-75
2022/09/02 01:42:19;;;;;;;1.50;0.90;;;20.20;47.00;;;;;;4974245;28;20636;-74
2022/09/02 01:44:45;;;;;;;2.13;0.70;;;20.20;47.10;;;;;;4991647;28;20611;-74
2022/09/02 01:47:22;;;;;;;1.60;0.70;;;20.20;47.20;;;;;;4974182;28;20676;-75
2022/09/02 01:49:49;;;;;;;2.63;0.80;;;20.10;47.50;;;;;;4990231;28;20608;-74
2022/09/02 01:52:16;;;;;;;1.70;0.80;;;20.10;47.50;;;;;;4977956;28;20574;-75
2022/09/02 01:54:43;;;;;;;1.80;0.60;;;20.10;47.50;;;;;;4978210;28;20570;-75
2022/09/02 01:57:10;;;;;;;2.53;0.70;;;20.10;47.60;;;;;;4994235;28;20566;-75
2022/09/02 01:59:37;;;;;;;1.30;0.60;;;20.10;47.60;;;;;;4978018;28;20704;-75
2022/09/02 02:02:03;;;;;;;3.00;0.70;;;20.10;47.80;;;;;;4994314;28;20752;-75
2022/09/02 02:04:30;;;;;;;1.80;0.67;;;20.10;47.90;;;;;;4979086;28;20194;-75
2022/09/02 02:06:56;;;;;;;2.40;0.70;;;20.00;47.80;;;;;;4961551;28;20630;-74
2022/09/02 02:09:22;;;;;;;1.50;0.73;;;20.00;47.80;;;;;;4961353;28;20617;-74
2022/09/02 02:11:50;;;;;;;1.50;0.60;;;20.00;47.80;;;;;;4977701;28;20590;-74
2022/09/02 02:14:16;;;;;;;2.37;0.67;;;20.00;47.80;;;;;;4997213;28;20586;-74
2022/09/02 02:16:49;;;;;;;2.93;0.80;;;20.00;47.90;;;;;;4977812;28;20547;-73
2022/09/02 02:19:15;;;;;;;1.87;0.63;;;20.00;48.00;;;;;;4994704;28;20614;-73
2022/09/02 02:21:41;;;;;;;1.70;0.80;;;20.00;48.20;;;;;;4993597;28;20636;-73
2022/09/02 02:24:07;;;;;;;3.13;0.70;;;20.00;48.10;;;;;;4977470;28;20178;-73
2022/09/02 02:26:34;;;;;;;2.20;0.60;;;20.00;48.20;;;;;;4993628;28;21163;-74
2022/09/02 02:29:02;;;;;;;1.40;0.70;;;20.00;48.20;;;;;;4977322;28;20606;-74
2022/09/02 02:31:28;;;;;;;2.23;1.00;;;19.90;48.30;;;;;;4993003;28;21054;-74
2022/09/02 02:33:54;;;;;;;4.70;0.80;;;19.90;48.20;;;;;;4977276;28;20578;-73
2022/09/02 02:36:21;;;;;;;2.47;0.60;;;19.90;48.40;;;;;;4977241;28;20606;-73
2022/09/02 02:38:46;;;;;;;3.33;0.73;;;19.90;48.40;;;;;;4977076;28;20977;-73
2022/09/02 02:41:13;;;;;;;7.87;0.90;;;19.90;49.10;;;;;;4994207;28;20578;-74
2022/09/02 02:43:41;;;;;;;2.80;0.70;;;19.90;48.60;;;;;;4977126;28;20178;-74
2022/09/02 02:46:07;;;;;;;2.17;0.70;;;19.80;48.60;;;;;;4993273;28;20574;-74
2022/09/02 02:48:35;;;;;;;3.57;0.90;;;19.80;48.60;;;;;;4960725;28;20625;-74
2022/09/02 02:51:02;;;;;;;2.03;0.73;;;19.80;48.80;;;;;;4993053;28;20581;-74
2022/09/02 02:53:30;;;;;;;2.47;0.83;;;19.90;48.80;;;;;;4993030;28;21134;-74
2022/09/02 02:55:57;;;;;;;2.47;0.60;;;19.90;48.80;;;;;;4976965;28;20570;-74
2022/09/02 02:58:23;;;;;;;1.50;0.70;;;19.90;48.90;;;;;;4993163;28;20583;-74
2022/09/02 03:00:50;;;;;;;1.70;0.90;;;19.90;48.90;;;;;;4976584;28;20575;-74
2022/09/02 03:03:18;;;;;;;1.30;0.50;;;19.90;49.40;;;;;;4959342;28;20587;-74
2022/09/02 03:05:48;;;;;;;3.17;0.70;;;19.90;49.20;;;;;;4976698;28;20590;-74
2022/09/02 03:08:15;;;;;;;3.73;0.60;;;19.80;49.10;;;;;;4976686;28;20633;-74
2022/09/02 03:10:41;;;;;;;2.30;0.70;;;19.90;49.20;;;;;;4976314;28;20609;-74
2022/09/02 03:13:09;;;;;;;1.40;0.60;;;19.90;49.20;;;;;;4976357;28;20578;-74
2022/09/02 03:15:37;;;;;;;2.67;0.80;;;19.90;49.30;;;;;;4992755;28;21113;-74
2022/09/02 03:18:04;;;;;;;1.40;0.70;;;19.90;49.40;;;;;;4976516;28;20574;-74
2022/09/02 03:20:31;;;;;;;1.40;0.60;;;19.90;49.40;;;;;;4976311;28;20609;-74
2022/09/02 03:23:03;;;;;;;1.50;0.60;;;19.90;49.40;;;;;;4992491;28;20602;-74
2022/09/02 03:25:30;;;;;;;1.40;0.60;;;19.80;49.40;;;;;;4992781;28;20617;-74
2022/09/02 03:27:57;;;;;;;2.40;0.70;;;19.80;49.50;;;;;;4976295;28;20622;-74
2022/09/02 03:30:26;;;;;;;1.60;0.60;;;19.80;49.60;;;;;;4992032;28;20634;-74
2022/09/02 03:32:58;;;;;;;1.63;0.70;;;19.80;49.50;;;;;;4990015;28;20590;-74
2022/09/02 03:35:25;;;;;;;1.77;0.70;;;19.80;49.50;;;;;;4992954;28;20693;-74
2022/09/02 03:37:52;;;;;;;1.60;0.60;;;19.80;49.50;;;;;;4984074;28;21005;-74
2022/09/02 03:40:23;;;;;;;2.17;0.70;;;19.80;49.60;;;;;;4959593;28;20994;-74
2022/09/02 03:42:52;;;;;;;2.20;0.80;;;19.80;49.60;;;;;;4960021;28;20575;-74
2022/09/02 03:45:19;;;;;;;2.80;0.80;;;19.80;49.60;;;;;;4975982;28;20581;-74
2022/09/02 03:47:52;;;;;;;1.60;0.70;;;19.80;50.30;;;;;;4975921;28;20618;-74
2022/09/02 03:50:28;;;;;;;1.60;0.60;;;19.80;49.60;;;;;;4959751;28;21237;-74
2022/09/02 03:52:57;;;;;;;4.33;1.00;;;19.80;49.70;;;;;;4975813;28;20585;-74
2022/09/02 03:55:23;;;;;;;1.53;0.67;;;19.80;49.70;;;;;;4959849;28;20606;-74
2022/09/02 03:57:49;;;;;;;2.33;0.60;;;19.80;49.70;;;;;;4959577;28;20660;-75
2022/09/02 04:00:18;;;;;;;1.70;0.57;;;19.70;49.90;;;;;;4975445;28;20601;-74
2022/09/02 04:02:46;;;;;;;2.43;1.00;;;19.70;50.10;;;;;;4959488;28;20585;-74
2022/09/02 04:05:12;;;;;;;1.50;0.67;;;19.70;49.80;;;;;;4959693;28;20593;-75
2022/09/02 04:07:40;;;;;;;1.40;0.70;;;19.70;49.80;;;;;;4975546;28;20641;-74
2022/09/02 04:10:07;;;;;;;1.47;0.63;;;19.70;49.80;;;;;;4975239;28;20681;-75
2022/09/02 04:12:36;;;;;;;1.50;0.70;;;19.70;49.80;;;;;;4991626;28;21140;-74
2022/09/02 04:15:07;;;;;;;2.03;0.70;;;19.70;50.10;;;;;;4975318;28;20716;-74
2022/09/02 04:17:38;;;;;;;1.40;0.60;;;19.70;50.10;;;;;;4975384;28;20585;-74
2022/09/02 04:20:08;;;;;;;5.63;0.80;;;19.70;50.20;;;;;;4975080;28;20612;-74
2022/09/02 04:22:34;;;;;;;1.67;0.73;;;19.70;50.10;;;;;;4959271;28;20600;-75
2022/09/02 04:25:00;;;;;;;1.70;0.80;;;19.70;50.20;;;;;;4975370;28;20574;-74
2022/09/02 04:27:27;;;;;;;4.93;0.80;;;19.70;50.20;;;;;;4975139;28;20680;-75
2022/09/02 04:29:55;;;;;;;1.40;0.60;;;19.70;50.30;;;;;;4975048;28;20594;-74
2022/09/02 04:32:21;;;;;;;1.67;0.70;;;19.60;50.50;;;;;;4974962;28;20601;-74
2022/09/02 04:34:49;;;;;;;1.40;0.70;;;19.60;50.50;;;;;;4992383;28;20574;-74
2022/09/02 04:37:15;;;;;;;3.63;0.70;;;19.70;50.40;;;;;;4975082;28;20578;-74
2022/09/02 04:39:41;;;;;;;2.20;0.73;;;19.70;50.40;;;;;;4958862;28;20676;-73
2022/09/02 04:42:08;;;;;;;1.50;0.80;;;19.70;50.40;;;;;;4974882;28;20569;-74
2022/09/02 04:44:34;;;;;;;1.50;0.80;;;19.70;50.30;;;;;;4962799;28;20642;-74
2022/09/02 04:47:01;;;;;;;1.73;0.70;;;19.70;50.40;;;;;;4955580;28;20666;-74
2022/09/02 04:49:30;;;;;;;3.47;0.70;;;19.70;50.50;;;;;;4956411;28;20595;-74
2022/09/02 04:51:57;;;;;;;1.37;0.63;;;19.70;50.50;;;;;;4956018;28;20567;-74
2022/09/02 04:54:25;;;;;;;4.10;0.70;;;19.70;50.80;;;;;;4955760;28;20910;-75
2022/09/02 04:56:52;;;;;;;1.90;0.80;;;19.60;50.90;;;;;;4939530;28;20913;-75
2022/09/02 04:59:20;;;;;;;2.00;0.60;;;19.60;50.70;;;;;;4972352;28;20618;-74
2022/09/02 05:01:56;;;;;;;1.57;0.70;;;19.70;50.80;;;;;;4955340;28;20570;-74
2022/09/02 05:04:25;;;;;;;4.30;0.80;;;19.70;50.90;;;;;;4955356;28;20694;-74
2022/09/02 05:06:53;;;;;;;1.53;0.70;;;19.70;50.90;;;;;;4955319;28;20619;-74
2022/09/02 05:09:20;;;;;;;1.77;0.70;;;19.70;50.80;;;;;;4954927;28;20605;-74
2022/09/02 05:11:56;;;;;;;2.63;0.60;;;19.80;50.90;;;;;;4955102;28;20634;-74
2022/09/02 05:14:24;;;;;;;1.70;0.80;;;19.80;50.80;;;;;;4971423;28;20580;-74
2022/09/02 05:16:53;;;;;;;2.23;1.03;;;19.80;51.00;;;;;;4971540;28;20587;-74
2022/09/02 05:19:23;;;;;;;1.90;0.70;;;19.80;50.80;;;;;;4972126;28;20607;-74
2022/09/02 05:21:54;;;;;;;1.83;0.80;;;19.80;50.90;;;;;;4939173;28;20587;-75
2022/09/02 05:24:28;;;;;;;3.13;0.80;;;19.80;50.90;;;;;;4971302;28;20586;-73
2022/09/02 05:26:57;;;;;;;2.67;1.00;;;19.80;50.90;;;;;;4958276;28;20619;-74
2022/09/02 05:29:25;;;;;;;2.47;0.80;;;19.80;50.90;;;;;;4958846;28;20641;-73
2022/09/02 05:31:52;;;;;;;2.23;0.80;;;19.90;50.90;;;;;;4958841;28;20595;-73
2022/09/02 05:34:21;;;;;;;2.23;1.17;;;19.90;51.10;;;;;;4958934;28;21121;-73
2022/09/02 05:36:48;;;;;;;1.97;0.70;;;19.90;51.10;;;;;;4958666;28;20682;-73
2022/09/02 05:39:14;;;;;;;3.03;0.80;;;20.00;51.10;;;;;;4978184;28;20695;-72
2022/09/02 05:41:41;;;;;;;4.13;0.80;;;20.10;51.20;;;;;;4977390;28;20179;-72
2022/09/02 05:44:08;;;;;;;2.70;0.80;;;20.10;51.20;;;;;;4974129;28;20578;-73
2022/09/02 05:46:35;;;;;;;2.03;1.00;;;20.20;51.20;;;;;;4977360;28;20575;-73
2022/09/02 05:49:07;;;;;;;6.60;0.97;;;20.10;51.20;;;;;;4966955;28;20241;-72
2022/09/02 05:51:45;;;;;;;1.83;0.90;;;20.20;51.20;;;;;;4966933;28;20674;-73
2022/09/02 05:54:20;;;;;;;3.17;0.90;;;20.30;51.30;;;;;;4969832;28;20593;-73
2022/09/02 05:56:50;;;;;;;3.83;1.27;;;20.30;51.20;;;;;;4973626;28;20574;-72
2022/09/02 05:59:19;;;;;;;1.40;0.60;;;20.30;51.20;;;;;;4970882;28;20618;-72
2022/09/02 06:01:46;;;;;;;3.77;0.73;;;20.40;51.30;;;;;;4971630;28;20582;-73
2022/09/02 06:04:12;;;;;;;3.33;0.87;;;20.40;51.20;;;;;;4984167;28;20567;-73
2022/09/02 06:06:39;;;;;;;2.97;1.23;;;20.40;51.20;;;;;;4984953;28;20687;-72
2022/09/02 06:09:09;;;;;;;3.80;0.70;;;20.50;51.30;;;;;;4963447;28;20610;-73
2022/09/02 06:11:38;;;;;;;2.50;0.63;;;20.50;51.30;;;;;;4974461;28;20583;-73
2022/09/02 06:14:06;;;;;;;1.70;0.63;;;20.60;51.40;;;;;;4970964;28;20578;-73
2022/09/02 06:16:37;;;;;;;3.10;0.80;;;20.70;51.40;;;;;;4968821;28;20602;-73
2022/09/02 06:19:05;;;;;;;2.73;0.77;;;20.80;51.50;;;;;;4974967;28;21072;-73
2022/09/02 06:21:32;;;;;;;1.50;0.60;;;20.90;51.50;;;;;;4973263;28;21010;-73
2022/09/02 06:23:58;;;;;;;2.90;0.70;;;20.90;51.40;;;;;;4968235;28;20579;-73
2022/09/02 06:26:25;;;;;;;1.70;0.77;;;21.00;51.40;;;;;;4953399;28;20602;-73
2022/09/02 06:28:51;;;;;;;2.50;0.80;;;21.10;51.50;;;;;;4985200;28;20740;-73
2022/09/02 06:31:20;;;;;;;2.40;0.87;;;21.10;51.40;;;;;;4976849;28;21096;-72
2022/09/02 06:33:50;;;;;;;2.47;0.80;;;21.20;51.30;;;;;;4977314;28;20171;-74
2022/09/02 06:36:19;;;;;;;2.03;0.60;;;21.20;51.30;;;;;;4975914;28;20728;-74
2022/09/02 06:38:48;;;;;;;5.03;0.80;;;21.40;51.60;;;;;;4981903;28;21175;-72
2022/09/02 06:41:22;;;;;;;1.53;0.70;;;21.90;51.80;;;;;;4957567;28;20590;-73
2022/09/02 06:43:49;;;;;;;4.40;0.90;;;22.60;52.30;;;;;;4973884;28;20571;-72
2022/09/02 06:46:23;;;;;;;1.53;0.60;;;23.10;52.10;;;;;;4977771;28;20590;-73
2022/09/02 06:48:52;;;;;;;1.50;0.80;;;23.40;51.50;;;;;;4981342;28;21043;-72
2022/09/02 06:51:23;;;;;;;1.77;0.77;;;23.90;51.20;;;;;;4976529;28;20947;-72
2022/09/02 06:53:50;;;;;;;1.50;0.70;;;24.20;50.60;;;;;;4977047;28;20562;-72
2022/09/02 06:56:17;;;;;;;1.63;0.70;;;24.80;51.00;;;;;;4976868;28;20665;-72
2022/09/02 06:58:43;;;;;;;4.10;0.90;;;25.30;50.70;;;;;;4994144;28;20566;-72
2022/09/02 07:01:15;;;;;;;4.90;1.00;;;26.00;50.30;;;;;;4976449;28;20581;-73
2022/09/02 07:06:27;;;;;;;2.83;0.70;;;27.20;48.00;;;;;;4994022;28;20570;-72
2022/09/02 07:08:53;;;;;;;1.70;0.70;;;27.10;46.40;;;;;;4973394;28;20643;-73
2022/09/02 07:11:22;;;;;;;2.07;0.90;;;26.70;46.00;;;;;;4983502;28;20590;-73
2022/09/02 07:13:50;;;;;;;1.83;0.70;;;26.50;46.00;;;;;;4994032;28;20574;-73
2022/09/02 07:16:17;;;;;;;1.87;0.80;;;26.20;45.90;;;;;;4992802;28;20581;-73
2022/09/02 07:18:44;;;;;;;2.33;0.70;;;26.00;46.00;;;;;;4992883;28;20665;-72
2022/09/02 07:21:12;;;;;;;2.03;0.80;;;25.80;45.90;;;;;;4992458;28;20567;-72
2022/09/02 07:23:39;;;;;;;1.67;0.83;;;25.40;45.80;;;;;;4992568;28;20574;-72
2022/09/02 07:26:12;;;;;;;1.70;0.80;;;25.20;45.90;;;;;;4976424;28;20609;-72
2022/09/02 07:28:39;;;;;;;5.73;0.90;;;25.10;46.70;;;;;;4992552;28;21147;-73
2022/09/02 07:31:12;;;;;;;1.70;0.80;;;25.50;47.70;;;;;;4992042;28;20590;-72
2022/09/02 07:33:39;;;;;;;1.70;0.87;;;25.90;47.90;;;;;;4992363;28;20567;-72
2022/09/02 07:36:08;;;;;;;2.90;0.80;;;26.30;47.90;;;;;;4976293;28;20598;-72
2022/09/02 07:38:36;;;;;;;1.97;0.70;;;26.80;48.00;;;;;;4992358;28;20574;-71
2022/09/02 07:41:03;;;;;;;2.97;0.80;;;26.90;46.40;;;;;;4992066;28;20582;-72
2022/09/02 07:43:33;;;;;;;2.20;0.77;;;27.00;46.60;;;;;;4990442;28;20598;-72
2022/09/02 07:46:01;;;;;;;2.30;1.03;;;27.20;46.20;;;;;;4967499;28;20640;-72
2022/09/02 07:48:29;;;;;;;2.30;0.93;;;27.60;45.90;;;;;;4991386;28;20618;-72
2022/09/02 07:50:56;;;;;;;2.00;0.90;;;27.70;45.50;;;;;;4991686;28;20710;-73
2022/09/02 07:53:23;;;;;;;1.60;0.73;;;28.00;45.80;;;;;;4991987;28;20602;-73
2022/09/02 07:55:49;;;;;;;1.57;0.80;;;28.60;45.40;;;;;;4992352;28;20701;-73
2022/09/02 07:58:18;;;;;;;1.87;0.80;;;28.90;45.10;;;;;;4993123;28;20656;-73
2022/09/02 08:00:44;;;;;;;1.70;0.70;;;29.10;44.80;;;;;;4991618;28;20292;-73
2022/09/02 08:03:12;;;;;;;2.10;0.80;;;29.40;43.50;;;;;;4975669;28;21037;-74
2022/09/02 08:05:45;;;;;;;1.50;0.80;;;29.70;43.90;;;;;;4991853;28;20605;-73
2022/09/02 08:08:18;;;;;;;2.37;0.90;;;29.90;43.50;;;;;;4992236;28;21178;-73
2022/09/02 08:10:46;;;;;;;3.10;0.70;;;30.20;43.00;;;;;;4953273;28;20602;-73
2022/09/02 08:13:13;;;;;;;2.40;0.93;;;30.40;43.00;;;;;;4980775;28;20688;-73
2022/09/02 08:15:38;;;;;;;1.67;0.80;;;30.70;42.30;;;;;;4992427;28;20646;-74
2022/09/02 08:18:06;;;;;;;2.17;0.80;;;30.80;41.80;;;;;;4986103;28;21140;-74
2022/09/02 08:20:32;;;;;;;1.70;0.83;;;31.10;42.00;;;;;;4992016;28;20191;-73
2022/09/02 08:22:58;;;;;;;1.90;0.80;;;31.50;42.10;;;;;;4992354;28;20992;-73
2022/09/02 08:25:24;;;;;;;1.60;0.80;;;31.60;40.30;;;;;;4992556;28;20562;-74
2022/09/02 08:27:52;;;;;;;2.03;0.80;;;31.60;40.20;;;;;;4992094;28;20199;-73
2022/09/02 08:30:18;;;;;;;3.10;0.73;;;31.60;40.00;;;;;;4977845;28;20970;-76
2022/09/02 08:32:43;;;;;;;2.07;0.80;;;31.60;39.70;;;;;;4982749;28;20599;-76
2022/09/02 08:35:10;;;;;;;2.40;0.70;;;31.60;39.60;;;;;;4998427;28;20579;-76
2022/09/02 08:37:36;;;;;;;3.20;1.00;;;31.60;39.50;;;;;;4979782;28;20523;-76
2022/09/02 08:40:05;;;;;;;2.90;0.83;;;31.70;39.80;;;;;;4982495;28;20677;-76
2022/09/02 08:42:38;;;;;;;1.83;0.80;;;32.20;40.00;;;;;;4992033;28;20632;-76
2022/09/02 08:45:11;;;;;;;1.50;0.80;;;32.70;39.50;;;;;;4992438;28;20588;-76
2022/09/02 08:47:42;;;;;;;2.00;0.90;;;33.30;39.80;;;;;;4971120;28;20641;-76
2022/09/02 08:50:18;;;;;;;3.10;1.10;;;34.00;40.00;;;;;;4983113;28;20623;-75
2022/09/02 08:53:06;;;;;;;2.63;0.80;;;34.60;39.30;;;;;;4991683;28;20570;-76
2022/09/02 08:55:42;;;;;;;2.20;0.70;;;34.90;37.10;;;;;;4980240;28;20588;-75
2022/09/02 08:58:08;;;;;;;1.70;0.90;;;35.20;37.30;;;;;;4992011;28;20616;-75
2022/09/02 09:00:41;;;;;;;2.50;0.80;;;35.40;36.40;;;;;;4995470;28;20705;-75
2022/09/02 09:03:38;;;;;;;2.33;0.80;;;35.60;35.90;;;;;;5006739;28;20570;-76
2022/09/02 09:06:04;;;;;;;1.67;0.70;;;35.60;35.20;;;;;;4991903;28;20582;-75
2022/09/02 09:09:00;;;;;;;1.60;0.70;;;35.30;33.40;;;;;;4992044;28;21190;-75
2022/09/02 09:11:44;;;;;;;1.43;0.80;;;35.00;33.30;;;;;;4989034;28;20175;-75
2022/09/02 09:14:27;;;;;;;1.80;0.80;;;35.00;34.30;;;;;;4988414;28;20594;-75
2022/09/02 09:17:32;;;;;;;2.83;1.00;;;35.00;34.30;;;;;;4982699;28;20606;-75
2022/09/02 09:20:09;;;;;;;1.80;0.80;;;35.00;34.10;;;;;;4954684;28;20990;-75
2022/09/02 09:22:38;;;;;;;1.40;0.70;;;35.00;33.90;;;;;;4972887;28;20589;-75
2022/09/02 09:25:14;;;;;;;1.97;0.70;;;34.90;34.00;;;;;;4973278;28;20666;-75
2022/09/02 09:27:40;;;;;;;2.43;0.77;;;35.00;33.60;;;;;;4972413;28;20993;-74
2022/09/02 09:30:08;;;;;;;1.80;0.80;;;35.10;34.20;;;;;;4971702;28;20659;-75
2022/09/02 09:32:45;;;;;;;2.93;0.80;;;35.20;32.60;;;;;;4989838;28;20630;-75
2022/09/02 09:35:13;;;;;;;1.60;0.80;;;35.00;33.10;;;;;;4990652;28;20963;-76
2022/09/02 09:37:47;;;;;;;1.77;0.80;;;34.60;32.00;;;;;;4991507;28;20585;-75
2022/09/02 09:40:22;;;;;;;2.47;0.73;;;34.40;32.40;;;;;;4992165;28;20649;-76
2022/09/02 09:42:51;;;;;;;1.70;0.70;;;34.40;32.00;;;;;;4982389;28;20585;-76
2022/09/02 09:45:39;;;;;;;3.07;0.90;;;34.40;32.60;;;;;;4994080;28;20653;-76
2022/09/02 09:48:14;;;;;;;1.90;0.90;;;34.20;32.60;;;;;;4991646;28;20625;-76
2022/09/02 09:50:40;;;;;;;1.40;0.63;;;34.30;32.90;;;;;;4991185;28;21008;-76
2022/09/02 09:53:24;;;;;;;1.43;0.70;;;34.40;33.00;;;;;;4991827;28;20562;-76
2022/09/02 09:55:56;;;;;;;1.73;0.80;;;34.40;31.60;;;;;;4991605;28;20577;-74
2022/09/02 09:58:43;;;;;;;1.93;0.73;;;34.30;31.60;;;;;;4992240;28;20708;-74
2022/09/02 10:01:21;;;;;;;1.47;0.60;;;34.00;32.00;;;;;;4988677;28;20590;-74
2022/09/02 10:04:00;;;;;;;2.30;0.80;;;34.30;32.70;;;;;;4981276;28;20642;-73
2022/09/02 10:06:29;;;;;;;1.70;0.60;;;34.80;32.60;;;;;;4984422;28;20609;-74
2022/09/02 10:08:58;;;;;;;2.57;0.80;;;35.40;33.00;;;;;;4986980;28;21192;-73
2022/09/02 10:11:32;;;;;;;2.20;0.70;;;35.80;32.30;;;;;;4972189;28;20969;-73
2022/09/02 10:14:09;;;;;;;3.67;0.80;;;35.70;31.10;;;;;;4989044;28;20926;-74
2022/09/02 10:17:16;;;;;;;1.70;0.70;;;35.50;30.50;;;;;;4994808;28;20573;-74
2022/09/02 10:20:11;;;;;;;1.53;0.63;;;35.70;31.10;;;;;;4994503;28;21184;-74
2022/09/02 10:23:04;;;;;;;1.53;0.73;;;35.80;30.50;;;;;;4995046;28;20628;-75
2022/09/02 10:25:45;;;;;;;1.83;1.00;;;35.90;28.90;;;;;;4993319;28;20621;-74
2022/09/02 10:28:29;;;;;;;3.47;0.80;;;36.00;29.20;;;;;;4994663;28;20636;-74
2022/09/02 10:31:27;;;;;;;1.97;1.00;;;35.80;29.70;;;;;;4957526;28;20668;-74
2022/09/02 10:34:17;;;;;;;3.60;1.20;;;35.30;27.90;;;;;;4973263;28;20577;-74
2022/09/02 10:37:01;;;;;;;2.17;0.77;;;34.80;28.50;;;;;;4955740;28;20602;-74
2022/09/02 10:39:53;;;;;;;1.83;0.60;;;34.20;28.60;;;;;;4972855;28;21043;-74
2022/09/02 10:42:38;;;;;;;2.70;0.80;;;34.00;29.40;;;;;;4962280;28;20594;-74
2022/09/02 10:45:14;;;;;;;1.40;0.70;;;34.00;29.70;;;;;;4996049;23;20558;-76
2022/09/02 10:47:40;;;;;;;2.37;0.80;;;33.80;29.80;;;;;;4960004;28;20649;-79
2022/09/02 10:50:25;;;;;;;1.97;0.70;;;33.40;29.10;;;;;;4947588;29;20578;-77
2022/09/02 10:53:16;;;;;;;2.13;0.80;;;32.90;28.70;;;;;;4955709;29;20184;-77
2022/09/02 10:55:56;;;;;;;2.07;0.80;;;32.40;29.30;;;;;;4962914;28;20595;-78
2022/09/02 10:58:34;;;;;;;2.60;0.70;;;32.10;29.80;;;;;;4954380;29;20611;-78
2022/09/02 11:01:01;;;;;;;2.57;0.70;;;31.90;29.80;;;;;;4972130;28;20571;-78
2022/09/02 11:04:00;;;;;;;2.63;0.60;;;31.70;29.90;;;;;;4974684;28;20571;-78
2022/09/02 11:06:34;;;;;;;2.80;0.70;;;31.60;30.00;;;;;;4956721;28;21219;-78
2022/09/02 11:09:18;;;;;;;3.10;0.70;;;31.50;30.00;;;;;;4934779;29;20693;-77
2022/09/02 11:11:52;;;;;;;1.50;0.80;;;31.70;30.00;;;;;;4934156;29;20602;-77
2022/09/02 11:14:35;;;;;;;2.50;0.63;;;31.70;29.80;;;;;;4961554;28;20579;-76
2022/09/02 11:17:18;;;;;;;1.60;0.60;;;31.70;29.80;;;;;;4972689;28;20661;-78
2022/09/02 11:19:57;;;;;;;1.43;0.67;;;31.90;29.90;;;;;;4953621;29;20615;-78
2022/09/02 11:23:02;;;;;;;1.40;0.60;;;32.00;29.70;;;;;;4940407;28;21015;-77
2022/09/02 11:25:42;;;;;;;3.83;0.63;;;32.20;29.80;;;;;;4883610;29;20626;-77
2022/09/02 11:28:29;;;;;;;1.70;0.67;;;32.20;29.90;;;;;;4914150;29;21082;-77
2022/09/02 11:30:59;;;;;;;2.17;0.70;;;32.30;30.00;;;;;;4942281;29;20647;-78
2022/09/02 11:33:36;;;;;;;1.40;0.60;;;32.60;30.00;;;;;;4954599;29;20559;-77
2022/09/02 11:36:03;;;;;;;2.43;0.60;;;32.60;29.80;;;;;;4935698;29;20597;-76
2022/09/02 11:38:32;;;;;;;1.80;0.70;;;33.00;29.70;;;;;;4934132;29;20953;-77
2022/09/02 11:41:17;;;;;;;3.40;0.80;;;33.10;29.30;;;;;;4934639;29;20589;-79
2022/09/02 11:43:54;;;;;;;1.67;0.60;;;32.80;28.30;;;;;;4954558;29;20571;-78
2022/09/02 11:46:56;;;;;;;4.13;0.80;;;32.70;29.00;;;;;;4947765;29;20653;-77
2022/09/02 11:50:09;;;;;;;2.37;0.50;;;32.50;28.60;;;;;;4957192;28;20687;-77
2022/09/02 11:53:01;;;;;;;2.00;0.70;;;32.20;28.50;;;;;;4933833;28;20601;-78
2022/09/02 11:55:32;;;;;;;1.40;0.80;;;32.20;29.10;;;;;;4961216;28;20613;-78
2022/09/02 11:58:00;;;;;;;1.47;0.70;;;32.20;29.10;;;;;;4951910;28;20584;-77
2022/09/02 12:00:35;;;;;;;1.43;0.70;;;32.00;29.10;;;;;;4956256;28;20632;-77
2022/09/02 12:03:13;;;;;;;3.13;0.60;;;31.90;29.30;;;;;;4943551;28;20589;-77
2022/09/02 12:05:38;;;;;;;2.10;1.00;;;31.80;29.30;;;;;;4968494;28;20627;-77
2022/09/02 12:08:13;;;;;;;1.73;0.60;;;31.90;29.40;;;;;;4961796;28;20638;-77
2022/09/02 12:10:42;;;;;;;9.03;0.80;;;31.70;29.10;;;;;;4967942;28;20176;-77
2022/09/02 12:13:10;;;;;;;1.40;0.70;;;31.80;29.50;;;;;;4952306;28;20598;-79
2022/09/02 12:15:37;;;;;;;1.40;0.77;;;31.80;29.50;;;;;;4959088;28;21046;-78
2022/09/02 12:18:26;;;;;;;1.40;0.60;;;31.80;29.60;;;;;;4964258;28;20931;-76
2022/09/02 12:21:15;;;;;;;3.30;0.80;;;31.80;29.50;;;;;;4972938;28;20605;-76
2022/09/02 12:23:51;;;;;;;1.40;0.70;;;31.90;29.60;;;;;;4965636;28;20591;-76
2022/09/02 12:26:37;;;;;;;2.90;1.20;;;31.90;29.40;;;;;;4973235;28;20633;-78
2022/09/02 12:29:11;;;;;;;2.10;1.10;;;31.90;29.40;;;;;;4960074;28;20659;-76
2022/09/02 12:31:42;;;;;;;2.27;0.83;;;31.90;29.10;;;;;;4947066;28;21208;-77
2022/09/02 12:34:20;;;;;;;1.40;0.80;;;31.90;29.40;;;;;;4939658;28;20642;-77
2022/09/02 12:36:46;;;;;;;1.60;0.60;;;31.90;29.30;;;;;;4972896;28;20619;-77
2022/09/02 12:39:24;;;;;;;1.50;0.70;;;31.90;29.10;;;;;;4972853;28;20583;-77
2022/09/02 12:42:05;;;;;;;3.20;0.70;;;31.60;28.70;;;;;;4955492;28;20175;-78
2022/09/02 12:44:45;;;;;;;2.57;0.70;;;31.50;29.30;;;;;;4972741;28;20609;-77
2022/09/02 12:47:45;;;;;;;4.23;0.70;;;31.40;29.20;;;;;;4952061;28;20799;-77
2022/09/02 12:50:21;;;;;;;4.13;0.70;;;31.30;29.10;;;;;;4953644;28;20572;-77
2022/09/02 12:52:49;;;;;;;2.10;0.90;;;31.10;29.20;;;;;;4952326;29;20687;-77
2022/09/02 12:55:21;;;;;;;1.70;0.80;;;31.00;29.30;;;;;;4952321;28;20594;-77
2022/09/02 12:57:52;;;;;;;2.63;0.67;;;30.90;29.40;;;;;;4953747;29;20568;-77
2022/09/02 13:00:38;;;;;;;1.50;0.60;;;30.80;29.50;;;;;;4953345;28;20930;-77
2022/09/02 13:03:22;;;;;;;2.47;0.60;;;30.80;29.50;;;;;;4952249;29;20582;-77
2022/09/02 13:06:09;;;;;;;2.00;1.03;;;30.70;29.50;;;;;;4957823;28;20600;-77
2022/09/02 13:08:47;;;;;;;8.83;1.23;;;30.40;29.50;;;;;;4952168;29;20627;-78
2022/09/02 13:11:51;;;;;;;2.00;0.80;;;30.30;29.40;;;;;;4951835;29;21152;-77
2022/09/02 13:14:53;;;;;;;2.23;0.70;;;30.00;29.60;;;;;;4953293;28;20564;-77